Time;durP1;ratioP1;P1;durP2;ratioP2;P2;SDS_P1;SDS_P2;PMS_P1;PMS_P2;Temp;Humidity;BMP_temperature;BMP_pressure;BME280_temperature;BME280_humidity;BME280_pressure;Samples;Min_cycle;Max_cycle;Signal;HPM_P1;HPM_P2
2021/04/19 00:01:10;;;;;;;0.65;0.65;;;15.30;64.50;;;;;;4225166;27;20578;-49
2021/04/19 00:03:32;;;;;;;;;;;15.30;64.60;;;;;;4244861;27;20070;-41
2021/04/19 00:05:53;;;;;;;0.00;0.00;;;15.30;64.70;;;;;;4234272;27;19939;-42
2021/04/19 00:08:14;;;;;;;0.10;0.10;;;15.20;64.60;;;;;;4233671;27;20058;-42
2021/04/19 00:10:36;;;;;;;0.10;0.10;;;15.20;64.70;;;;;;4233443;27;20044;-41
2021/04/19 00:12:58;;;;;;;0.00;0.00;;;15.20;64.70;;;;;;4210652;28;20076;-45
2021/04/19 00:15:20;;;;;;;0.00;0.00;;;15.20;64.70;;;;;;4210750;28;20075;-41
2021/04/19 00:17:41;;;;;;;0.00;0.00;;;15.20;64.70;;;;;;4193872;28;20414;-41
2021/04/19 00:20:04;;;;;;;40.45;2.03;;;15.20;64.70;;;;;;4193414;28;20072;-41
2021/04/19 00:22:25;;;;;;;0.28;0.25;;;15.20;64.70;;;;;;4199275;27;20461;-41
2021/04/19 00:24:46;;;;;;;0.00;0.00;;;15.20;64.70;;;;;;4211721;28;20079;-42
2021/04/19 00:27:07;;;;;;;0.80;0.55;;;15.20;64.80;;;;;;4228261;27;20072;-41
2021/04/19 00:29:29;;;;;;;0.52;0.47;;;15.20;64.80;;;;;;4193642;28;20047;-41
2021/04/19 00:31:50;;;;;;;0.00;0.00;;;15.20;64.80;;;;;;4195010;28;20057;-41
2021/04/19 00:34:12;;;;;;;0.35;0.35;;;15.20;64.80;;;;;;4210224;28;20101;-40
2021/04/19 00:36:33;;;;;;;0.52;0.52;;;15.20;64.80;;;;;;4209806;28;20064;-41
2021/04/19 00:38:53;;;;;;;0.20;0.20;;;15.20;64.90;;;;;;4221126;28;20054;-41
2021/04/19 00:41:14;;;;;;;0.55;0.30;;;15.20;64.90;;;;;;4204615;28;20526;-41
2021/04/19 00:43:37;;;;;;;0.35;0.35;;;15.20;65.90;;;;;;4193298;28;20058;-40
2021/04/19 00:46:02;;;;;;;0.00;0.00;;;15.20;65.00;;;;;;4193526;28;20090;-41
2021/04/19 00:48:24;;;;;;;0.17;0.17;;;15.20;65.10;;;;;;4193268;28;20060;-41
2021/04/19 00:50:49;;;;;;;;;;;15.20;65.10;;;;;;4193142;28;20143;-41
2021/04/19 00:53:11;;;;;;;0.10;0.10;;;15.20;65.20;;;;;;4192679;28;20728;-42
2021/04/19 00:55:32;;;;;;;0.22;0.22;;;15.20;65.20;;;;;;4199363;28;20490;-42
2021/04/19 00:57:53;;;;;;;0.00;0.00;;;15.20;65.30;;;;;;4198369;28;20045;-41
2021/04/19 01:00:19;;;;;;;0.47;0.47;;;15.10;66.10;;;;;;4192640;28;20486;-41
2021/04/19 01:02:42;;;;;;;0.00;0.00;;;15.10;65.20;;;;;;4186981;28;20052;-41
2021/04/19 01:05:08;;;;;;;0.32;0.32;;;15.10;65.30;;;;;;4191609;28;20170;-41
2021/04/19 01:07:29;;;;;;;50.50;2.65;;;15.10;65.30;;;;;;4221121;27;20778;-41
2021/04/19 01:09:50;;;;;;;0.10;0.10;;;15.10;65.40;;;;;;4242889;27;20054;-40
2021/04/19 01:12:11;;;;;;;0.22;0.22;;;15.10;65.40;;;;;;4243005;27;20101;-41
2021/04/19 01:14:32;;;;;;;0.10;0.10;;;15.10;65.40;;;;;;4243058;27;20054;-41
2021/04/19 01:16:53;;;;;;;;;;;15.10;65.50;;;;;;4209650;28;20134;-41
2021/04/19 01:19:15;;;;;;;1.02;0.95;;;15.10;65.60;;;;;;4210911;28;20018;-41
2021/04/19 01:21:38;;;;;;;0.00;0.00;;;15.10;65.60;;;;;;4210251;28;20656;-41
2021/04/19 01:23:59;;;;;;;0.00;0.00;;;15.00;65.60;;;;;;4225917;28;20620;-41
2021/04/19 01:26:22;;;;;;;0.10;0.10;;;15.00;65.70;;;;;;4202792;28;20111;-40
2021/04/19 01:28:45;;;;;;;0.00;0.00;;;15.00;65.80;;;;;;4223715;28;20460;-41
2021/04/19 01:31:06;;;;;;;0.00;0.00;;;15.00;65.90;;;;;;4225969;28;20117;-42
2021/04/19 01:33:32;;;;;;;1.67;0.43;;;15.00;65.90;;;;;;4210087;28;20052;-41
2021/04/19 01:35:53;;;;;;;0.55;0.55;;;15.00;66.00;;;;;;4225100;28;20046;-41
2021/04/19 01:38:19;;;;;;;0.13;0.13;;;14.90;65.90;;;;;;4209900;28;20055;-45
2021/04/19 01:40:41;;;;;;;0.00;0.00;;;14.90;65.90;;;;;;4204413;28;20125;-48
2021/04/19 01:43:03;;;;;;;0.00;0.00;;;14.90;65.90;;;;;;4210441;28;20052;-47
2021/04/19 01:45:35;;;;;;;1.35;1.10;;;14.90;66.00;;;;;;4197434;28;20143;-41
2021/04/19 01:47:59;;;;;;;0.00;0.00;;;14.90;66.00;;;;;;4225886;28;20047;-43
2021/04/19 01:50:22;;;;;;;0.38;0.38;;;14.90;65.90;;;;;;4207917;28;20077;-41
2021/04/19 01:52:46;;;;;;;0.20;0.20;;;14.80;66.00;;;;;;4224155;28;20512;-41
2021/04/19 01:55:12;;;;;;;0.10;0.10;;;14.80;66.00;;;;;;4230908;27;20116;-42
2021/04/19 01:57:38;;;;;;;0.00;0.00;;;14.80;65.90;;;;;;4241403;27;20054;-42
2021/04/19 02:00:01;;;;;;;0.17;0.17;;;14.80;66.00;;;;;;4220964;28;20040;-42
2021/04/19 02:02:35;;;;;;;0.00;0.00;;;14.80;66.20;;;;;;4208498;28;20457;-41
2021/04/19 02:05:04;;;;;;;0.43;0.43;;;14.80;66.10;;;;;;4193147;28;20048;-42
2021/04/19 02:07:38;;;;;;;0.05;0.05;;;14.80;66.10;;;;;;4192774;28;20046;-41
2021/04/19 02:10:05;;;;;;;1.30;0.95;;;14.80;66.10;;;;;;4198093;28;20051;-42
2021/04/19 02:12:40;;;;;;;0.10;0.10;;;14.80;66.10;;;;;;4192990;28;20430;-41
2021/04/19 02:15:07;;;;;;;1.17;0.60;;;14.80;66.20;;;;;;4191477;28;20564;-41
2021/04/19 02:17:40;;;;;;;0.15;0.15;;;14.80;66.30;;;;;;4193055;28;20530;-41
2021/04/19 02:20:09;;;;;;;0.10;0.10;;;14.80;66.30;;;;;;4218097;27;20562;-42
2021/04/19 02:22:35;;;;;;;0.00;0.00;;;14.70;66.30;;;;;;4226335;27;20471;-44
2021/04/19 02:25:06;;;;;;;3.63;0.95;;;14.70;66.30;;;;;;4225903;27;20056;-41
2021/04/19 02:27:33;;;;;;;0.00;0.00;;;14.70;66.20;;;;;;4241573;27;20061;-41
2021/04/19 02:29:57;;;;;;;0.00;0.00;;;14.70;66.30;;;;;;4216842;27;20150;-39
2021/04/19 02:32:21;;;;;;;0.00;0.00;;;14.70;66.30;;;;;;4196753;28;20067;-41
2021/04/19 02:34:45;;;;;;;0.30;0.30;;;14.70;66.50;;;;;;4206637;28;20055;-42
2021/04/19 02:37:08;;;;;;;0.00;0.00;;;14.70;66.40;;;;;;4191433;28;20056;-42
2021/04/19 02:39:33;;;;;;;0.10;0.10;;;14.70;66.40;;;;;;4208121;28;20051;-42
2021/04/19 02:41:56;;;;;;;0.77;0.77;;;14.70;66.40;;;;;;4217761;28;20803;-42
2021/04/19 02:44:20;;;;;;;7.88;1.65;;;14.70;66.50;;;;;;4224699;28;20599;-42
2021/04/19 02:46:58;;;;;;;1.23;1.23;;;14.70;66.50;;;;;;4210039;28;20501;-42
2021/04/19 02:49:22;;;;;;;0.43;0.43;;;14.70;66.40;;;;;;4215604;28;20056;-42
2021/04/19 02:51:43;;;;;;;0.52;0.52;;;14.70;66.50;;;;;;4207746;28;20059;-42
2021/04/19 02:54:05;;;;;;;0.00;0.00;;;14.70;66.50;;;;;;4207772;28;20540;-42
2021/04/19 02:56:28;;;;;;;0.57;0.55;;;14.60;66.60;;;;;;4223997;28;20051;-42
2021/04/19 02:58:53;;;;;;;2.95;2.45;;;14.70;66.60;;;;;;4209042;28;20043;-41
2021/04/19 03:01:23;;;;;;;0.00;0.00;;;14.60;66.60;;;;;;4193638;28;20048;-42
2021/04/19 03:03:49;;;;;;;1.42;1.33;;;14.70;66.70;;;;;;4224254;28;20085;-42
2021/04/19 03:06:13;;;;;;;0.28;0.28;;;14.70;66.00;;;;;;4208742;28;20509;-42
2021/04/19 03:08:40;;;;;;;1.35;0.75;;;14.60;66.70;;;;;;4219421;28;20052;-42
2021/04/19 03:11:08;;;;;;;0.00;0.00;;;14.70;66.70;;;;;;4190280;28;20481;-42
2021/04/19 03:13:32;;;;;;;0.40;0.40;;;14.70;66.70;;;;;;4224596;28;20043;-41
2021/04/19 03:15:59;;;;;;;1.58;1.48;;;14.60;66.70;;;;;;4193868;28;20052;-42
2021/04/19 03:18:23;;;;;;;0.98;0.98;;;14.60;66.80;;;;;;4189859;28;20039;-42
2021/04/19 03:21:05;;;;;;;0.00;0.00;;;14.60;66.80;;;;;;4190933;28;20045;-42
2021/04/19 03:23:32;;;;;;;0.05;0.05;;;14.60;66.80;;;;;;4189390;28;20105;-42
2021/04/19 03:25:56;;;;;;;2.35;1.98;;;14.60;67.70;;;;;;4204806;28;20125;-43
2021/04/19 03:28:20;;;;;;;1.27;0.50;;;14.60;66.80;;;;;;4217357;28;20051;-42
2021/04/19 03:30:44;;;;;;;0.00;0.00;;;14.60;66.80;;;;;;4204918;28;20059;-45
2021/04/19 03:33:09;;;;;;;0.38;0.38;;;14.60;66.90;;;;;;4207531;28;20129;-44
2021/04/19 03:35:35;;;;;;;0.00;0.00;;;14.60;67.00;;;;;;4198442;28;20131;-42
2021/04/19 03:38:03;;;;;;;0.20;0.20;;;14.60;67.00;;;;;;4208781;28;20134;-43
2021/04/19 03:40:28;;;;;;;0.00;0.00;;;14.60;67.80;;;;;;4203132;28;20126;-44
2021/04/19 03:42:54;;;;;;;0.00;0.00;;;14.60;67.00;;;;;;4221272;28;20429;-41
2021/04/19 03:45:18;;;;;;;0.93;0.93;;;14.60;66.90;;;;;;4223681;28;20058;-42
2021/04/19 03:48:12;;;;;;;0.65;0.65;;;14.50;67.00;;;;;;4161038;28;20412;-42
2021/04/19 03:50:45;;;;;;;0.10;0.10;;;14.60;67.10;;;;;;4208041;28;20062;-49
2021/04/19 03:53:08;;;;;;;0.95;0.95;;;14.50;67.00;;;;;;4208085;28;20052;-44
2021/04/19 03:55:30;;;;;;;1.13;0.75;;;14.50;66.90;;;;;;4208226;28;20405;-44
2021/04/19 03:57:54;;;;;;;0.00;0.00;;;14.50;66.90;;;;;;4208238;28;20522;-42
2021/04/19 04:00:24;;;;;;;0.00;0.00;;;14.50;66.90;;;;;;4184096;28;20423;-47
2021/04/19 04:03:03;;;;;;;0.00;0.00;;;14.50;67.10;;;;;;4205870;28;20067;-42
2021/04/19 04:05:48;;;;;;;0.20;0.20;;;14.50;67.10;;;;;;4207093;28;20048;-42
2021/04/19 04:08:15;;;;;;;0.05;0.05;;;14.50;67.20;;;;;;4205554;28;20040;-42
2021/04/19 04:10:37;;;;;;;0.00;0.00;;;14.50;67.20;;;;;;4207046;28;20089;-44
2021/04/19 04:12:59;;;;;;;;;;;14.50;67.10;;;;;;4193756;28;20483;-42
2021/04/19 04:15:22;;;;;;;0.00;0.00;;;14.50;67.30;;;;;;4207535;28;20007;-42
2021/04/19 04:17:52;;;;;;;0.10;0.10;;;14.50;67.20;;;;;;4206408;28;20484;-42
2021/04/19 04:20:26;;;;;;;0.35;0.35;;;14.50;67.20;;;;;;4186127;28;20044;-41
2021/04/19 04:22:53;;;;;;;0.03;0.03;;;14.50;67.30;;;;;;4205371;28;20052;-42
2021/04/19 04:25:19;;;;;;;0.17;0.17;;;14.50;67.30;;;;;;4201461;28;20052;-42
2021/04/19 04:27:42;;;;;;;0.17;0.17;;;14.50;67.20;;;;;;4208079;28;20059;-42
2021/04/19 04:30:05;;;;;;;0.10;0.10;;;14.50;67.70;;;;;;4223831;28;20425;-42
2021/04/19 04:32:47;;;;;;;50.42;2.10;;;14.40;67.30;;;;;;4223403;28;20101;-42
2021/04/19 04:35:14;;;;;;;0.10;0.10;;;14.40;67.50;;;;;;4192835;28;20075;-42
2021/04/19 04:37:38;;;;;;;0.10;0.10;;;14.40;67.50;;;;;;4193715;28;20066;-42
2021/04/19 04:40:10;;;;;;;0.40;0.40;;;14.40;67.60;;;;;;4205132;28;20131;-42
2021/04/19 04:42:34;;;;;;;0.00;0.00;;;14.40;67.60;;;;;;4207426;28;20052;-42
2021/04/19 04:44:55;;;;;;;0.10;0.10;;;14.40;67.60;;;;;;4210029;28;20048;-42
2021/04/19 04:47:31;;;;;;;0.20;0.20;;;14.40;67.60;;;;;;4221181;28;20489;-42
2021/04/19 04:50:06;;;;;;;0.00;0.00;;;14.40;67.70;;;;;;4226348;28;20087;-43
2021/04/19 04:52:31;;;;;;;0.10;0.10;;;14.50;68.00;;;;;;4225857;28;20048;-42
2021/04/19 04:54:52;;;;;;;0.00;0.00;;;14.40;68.10;;;;;;4235698;27;20055;-41
2021/04/19 04:57:15;;;;;;;0.10;0.10;;;14.50;68.10;;;;;;4243424;27;20035;-45
2021/04/19 04:59:38;;;;;;;0.30;0.30;;;14.50;68.10;;;;;;4209385;28;20044;-42
2021/04/19 05:01:59;;;;;;;0.13;0.13;;;14.50;68.10;;;;;;4193291;28;20059;-42
2021/04/19 05:04:20;;;;;;;0.20;0.20;;;14.50;68.00;;;;;;4192740;28;20495;-42
2021/04/19 05:06:41;;;;;;;0.40;0.40;;;14.50;67.90;;;;;;4192551;28;20048;-42
2021/04/19 05:09:04;;;;;;;0.00;0.00;;;14.50;68.00;;;;;;4208419;28;20417;-45
2021/04/19 05:11:25;;;;;;;0.10;0.10;;;14.60;67.90;;;;;;4226157;28;20073;-51
2021/04/19 05:13:48;;;;;;;0.00;0.00;;;14.60;67.80;;;;;;4210264;28;20044;-43
2021/04/19 05:16:09;;;;;;;0.20;0.20;;;14.60;67.90;;;;;;4214951;28;20056;-47
2021/04/19 05:18:30;;;;;;;0.00;0.00;;;14.60;67.90;;;;;;4220426;28;20044;-46
2021/04/19 05:20:51;;;;;;;0.00;0.00;;;14.60;68.00;;;;;;4225798;28;20048;-49
2021/04/19 05:23:14;;;;;;;2.20;1.55;;;14.70;68.00;;;;;;4223376;28;20043;-43
2021/04/19 05:25:35;;;;;;;0.20;0.20;;;14.70;67.70;;;;;;4210960;28;20043;-52
2021/04/19 05:27:58;;;;;;;0.00;0.00;;;14.80;68.20;;;;;;4223931;28;20047;-46
2021/04/19 05:30:22;;;;;;;0.93;0.93;;;14.90;69.10;;;;;;4192067;28;20110;-51
2021/04/19 05:32:43;;;;;;;1.48;1.38;;;14.90;70.10;;;;;;4193529;28;20059;-45
2021/04/19 05:35:05;;;;;;;0.28;0.13;;;15.00;68.60;;;;;;4192954;28;20093;-43
2021/04/19 05:37:27;;;;;;;9.82;2.75;;;15.00;68.00;;;;;;4226083;28;20070;-46
2021/04/19 05:39:48;;;;;;;;;;;15.00;67.50;;;;;;4217798;27;20089;-44
2021/04/19 05:42:10;;;;;;;0.85;0.85;;;15.00;67.20;;;;;;4217337;28;19926;-43
2021/04/19 05:44:32;;;;;;;0.65;0.65;;;14.90;67.00;;;;;;4196851;28;20051;-47
2021/04/19 05:46:56;;;;;;;0.98;0.98;;;14.90;66.90;;;;;;4216075;28;20047;-46
2021/04/19 05:49:17;;;;;;;1.13;1.13;;;14.80;66.90;;;;;;4235696;27;20539;-47
2021/04/19 05:51:42;;;;;;;0.20;0.20;;;14.80;66.90;;;;;;4224235;27;20494;-46
2021/04/19 05:54:03;;;;;;;0.47;0.47;;;14.80;67.40;;;;;;4234194;27;20051;-48
2021/04/19 05:56:30;;;;;;;;;;;14.70;67.20;;;;;;4200636;28;20475;-45
2021/04/19 05:59:00;;;;;;;0.45;0.45;;;14.70;68.00;;;;;;4211919;27;19924;-45
2021/04/19 06:01:23;;;;;;;0.95;0.90;;;14.70;67.10;;;;;;4207280;28;20075;-49
2021/04/19 06:03:54;;;;;;;0.20;0.20;;;14.70;67.10;;;;;;4209245;27;20070;-44
2021/04/19 06:06:22;;;;;;;0.22;0.22;;;14.70;67.10;;;;;;4242369;27;20055;-46
2021/04/19 06:08:54;;;;;;;0.17;0.17;;;14.60;67.10;;;;;;4224706;27;20056;-46
2021/04/19 06:11:28;;;;;;;0.90;0.73;;;14.70;67.00;;;;;;4208516;28;20060;-46
2021/04/19 06:14:15;;;;;;;0.13;0.13;;;14.60;66.90;;;;;;4208366;28;20048;-46
2021/04/19 06:16:38;;;;;;;0.10;0.10;;;14.60;66.80;;;;;;4209226;28;20119;-48
2021/04/19 06:19:01;;;;;;;0.17;0.17;;;14.70;66.70;;;;;;4207352;28;20046;-50
2021/04/19 06:21:23;;;;;;;0.10;0.10;;;14.70;66.60;;;;;;4208812;28;20055;-44
2021/04/19 06:23:44;;;;;;;0.20;0.20;;;14.70;66.50;;;;;;4208434;28;20052;-45
2021/04/19 06:26:07;;;;;;;13.80;1.08;;;14.80;66.30;;;;;;4216751;27;20471;-44
2021/04/19 06:28:29;;;;;;;0.13;0.13;;;14.80;66.20;;;;;;4217829;28;20485;-46
2021/04/19 06:31:14;;;;;;;0.10;0.10;;;14.90;66.10;;;;;;4208399;28;20044;-43
2021/04/19 06:33:35;;;;;;;1.13;0.63;;;14.90;65.90;;;;;;4208081;28;20051;-46
2021/04/19 06:35:58;;;;;;;0.90;0.90;;;14.90;65.80;;;;;;4207594;28;20134;-45
2021/04/19 06:38:18;;;;;;;0.90;0.90;;;15.00;65.70;;;;;;4208137;28;20048;-43
2021/04/19 06:40:44;;;;;;;0.15;0.15;;;15.00;65.60;;;;;;4207595;28;20513;-43
2021/04/19 06:43:05;;;;;;;0.32;0.32;;;15.00;65.40;;;;;;4213359;28;20061;-44
2021/04/19 06:45:27;;;;;;;0.05;0.05;;;15.10;65.40;;;;;;4208455;28;20123;-46
2021/04/19 06:47:50;;;;;;;0.00;0.00;;;15.10;65.40;;;;;;4224789;28;20048;-43
2021/04/19 06:50:12;;;;;;;0.68;0.68;;;15.10;65.50;;;;;;4224503;28;20101;-44
2021/04/19 06:52:35;;;;;;;0.00;0.00;;;15.10;65.50;;;;;;4224696;28;20051;-43
2021/04/19 06:54:56;;;;;;;0.75;0.75;;;15.10;65.40;;;;;;4224819;28;20554;-48
2021/04/19 06:57:19;;;;;;;1.15;1.15;;;15.20;65.40;;;;;;4224274;28;20506;-52
2021/04/19 06:59:44;;;;;;;0.52;0.52;;;15.20;65.40;;;;;;4224888;28;20521;-44
2021/04/19 07:02:17;;;;;;;0.65;0.65;;;15.30;65.30;;;;;;4224418;28;20047;-45
2021/04/19 07:04:38;;;;;;;0.00;0.00;;;15.30;65.20;;;;;;4224477;28;23850;-43
2021/04/19 07:06:59;;;;;;;0.65;0.65;;;15.30;65.10;;;;;;4224441;28;20040;-44
2021/04/19 07:09:26;;;;;;;0.10;0.10;;;15.40;65.20;;;;;;4224550;28;20044;-42
2021/04/19 07:11:52;;;;;;;0.00;0.00;;;15.40;65.00;;;;;;4224394;28;20063;-44
2021/04/19 07:14:16;;;;;;;0.00;0.00;;;15.40;64.90;;;;;;4233820;27;20163;-44
2021/04/19 07:16:38;;;;;;;0.22;0.22;;;15.40;64.90;;;;;;4241065;27;20070;-44
2021/04/19 07:18:59;;;;;;;3.38;1.35;;;15.50;64.80;;;;;;4241300;27;20759;-44
2021/04/19 07:21:20;;;;;;;0.60;0.60;;;15.50;64.70;;;;;;4241347;27;20104;-46
2021/04/19 07:23:41;;;;;;;;;;;15.50;64.80;;;;;;4241905;27;20066;-46
2021/04/19 07:26:04;;;;;;;38.10;1.77;;;15.50;64.70;;;;;;4239771;27;19930;-44
2021/04/19 07:28:25;;;;;;;0.80;0.80;;;15.50;64.60;;;;;;4241119;27;20493;-44
2021/04/19 07:30:58;;;;;;;0.10;0.10;;;15.50;64.70;;;;;;4240902;27;20043;-45
2021/04/19 07:33:31;;;;;;;0.98;0.50;;;15.50;64.80;;;;;;4241038;27;20671;-45
2021/04/19 07:35:53;;;;;;;0.63;0.63;;;15.50;64.80;;;;;;4240695;27;20075;-44
2021/04/19 07:38:14;;;;;;;0.10;0.10;;;15.50;64.90;;;;;;4225554;28;20047;-44
2021/04/19 07:40:39;;;;;;;0.00;0.00;;;15.60;65.00;;;;;;4241238;28;20047;-45
2021/04/19 07:43:16;;;;;;;0.10;0.10;;;15.60;64.90;;;;;;4192083;28;20131;-46
2021/04/19 07:45:38;;;;;;;0.10;0.10;;;15.60;64.90;;;;;;4202107;28;20112;-43
2021/04/19 07:47:59;;;;;;;0.32;0.32;;;15.60;64.90;;;;;;4207433;28;20079;-44
2021/04/19 07:50:23;;;;;;;0.00;0.00;;;15.60;64.90;;;;;;4207206;28;21587;-45
2021/04/19 07:52:54;;;;;;;1.30;0.95;;;15.60;64.80;;;;;;4207396;28;20521;-45
2021/04/19 07:55:17;;;;;;;0.10;0.10;;;15.70;65.00;;;;;;4207236;28;20052;-43
2021/04/19 07:57:54;;;;;;;0.55;0.55;;;15.70;64.80;;;;;;4205426;28;20054;-43
2021/04/19 08:00:26;;;;;;;1.63;1.52;;;15.70;64.90;;;;;;4191967;28;20075;-44
2021/04/19 08:02:57;;;;;;;4.85;1.20;;;15.70;65.00;;;;;;4189250;28;20076;-45
2021/04/19 08:05:30;;;;;;;0.43;0.43;;;15.70;65.00;;;;;;4190811;28;20048;-44
2021/04/19 08:07:54;;;;;;;1.05;1.05;;;15.70;65.10;;;;;;4206803;28;20141;-43
2021/04/19 08:10:21;;;;;;;1.70;1.15;;;15.70;65.20;;;;;;4209973;28;20063;-43
2021/04/19 08:12:44;;;;;;;1.45;1.45;;;15.80;65.10;;;;;;4195171;28;20074;-44
2021/04/19 08:15:10;;;;;;;0.20;0.20;;;15.80;65.30;;;;;;4227047;28;20489;-43
2021/04/19 08:17:33;;;;;;;0.00;0.00;;;15.80;65.10;;;;;;4226930;28;20054;-43
2021/04/19 08:20:04;;;;;;;0.60;0.32;;;15.80;65.10;;;;;;4227192;28;20060;-44
2021/04/19 08:22:27;;;;;;;0.85;0.85;;;15.80;65.10;;;;;;4227038;28;20039;-43
2021/04/19 08:24:48;;;;;;;0.28;0.28;;;15.80;65.10;;;;;;4211906;28;20052;-44
2021/04/19 08:27:19;;;;;;;2.20;1.85;;;15.90;65.10;;;;;;4211537;28;20430;-43
2021/04/19 08:29:43;;;;;;;0.38;0.38;;;15.90;65.10;;;;;;4226878;28;20052;-43
2021/04/19 08:32:07;;;;;;;1.13;0.70;;;15.90;65.20;;;;;;4226642;27;20055;-50
2021/04/19 08:34:30;;;;;;;0.50;0.50;;;15.90;65.20;;;;;;4227092;28;20131;-50
2021/04/19 08:36:51;;;;;;;3.72;0.90;;;15.90;65.10;;;;;;4227276;28;20075;-44
2021/04/19 08:39:13;;;;;;;0.50;0.50;;;15.90;65.20;;;;;;4241617;27;20053;-44
2021/04/19 08:41:34;;;;;;;0.60;0.60;;;16.00;65.10;;;;;;4242405;27;20057;-46
2021/04/19 08:43:57;;;;;;;1.00;1.00;;;16.00;65.00;;;;;;4231735;27;20708;-48
2021/04/19 08:46:19;;;;;;;0.25;0.25;;;16.00;65.20;;;;;;4243740;27;20493;-44
2021/04/19 08:48:40;;;;;;;1.05;1.05;;;16.00;65.30;;;;;;4243749;27;20096;-45
2021/04/19 08:51:04;;;;;;;0.85;0.85;;;16.00;65.20;;;;;;4230593;27;20146;-44
2021/04/19 08:53:25;;;;;;;2.25;1.85;;;16.00;65.30;;;;;;4210067;28;20410;-43
2021/04/19 08:55:48;;;;;;;1.00;0.20;;;16.00;65.20;;;;;;4209745;28;20074;-44
2021/04/19 08:58:12;;;;;;;1.10;0.55;;;15.90;65.30;;;;;;4193567;28;20426;-48
2021/04/19 09:00:33;;;;;;;0.60;0.60;;;15.90;65.20;;;;;;4210251;28;20048;-43
2021/04/19 09:02:58;;;;;;;0.60;0.60;;;15.90;65.30;;;;;;4226381;28;20055;-43
2021/04/19 09:05:23;;;;;;;0.20;0.20;;;15.90;65.50;;;;;;4226433;28;20059;-46
2021/04/19 09:07:46;;;;;;;3.72;1.83;;;16.00;65.50;;;;;;4210352;28;20043;-46
2021/04/19 09:10:10;;;;;;;0.50;0.50;;;16.00;65.60;;;;;;4216714;28;20413;-45
2021/04/19 09:12:31;;;;;;;1.15;1.05;;;16.00;65.60;;;;;;4226608;28;20047;-44
2021/04/19 09:15:07;;;;;;;;;;;16.00;65.40;;;;;;4230424;27;20054;-43
2021/04/19 09:17:28;;;;;;;0.28;0.28;;;16.00;65.50;;;;;;4242441;27;19923;-43
2021/04/19 09:19:56;;;;;;;1.25;0.60;;;15.90;65.40;;;;;;4242720;27;20145;-44
2021/04/19 09:22:21;;;;;;;2.17;2.08;;;15.90;65.40;;;;;;4243300;27;20046;-48
2021/04/19 09:25:00;;;;;;;0.00;0.00;;;15.90;65.40;;;;;;4242636;27;20067;-46
2021/04/19 09:27:45;;;;;;;1.13;1.08;;;15.90;65.40;;;;;;4242719;27;20047;-44
2021/04/19 09:30:26;;;;;;;0.17;0.17;;;15.80;65.30;;;;;;4237818;27;20047;-44
2021/04/19 09:32:48;;;;;;;4.28;0.60;;;15.90;65.40;;;;;;4209497;28;20514;-44
2021/04/19 09:35:09;;;;;;;0.90;0.90;;;15.80;65.30;;;;;;4208222;28;20052;-43
2021/04/19 09:37:53;;;;;;;;;;;15.80;65.30;;;;;;4209967;28;20047;-46
2021/04/19 09:40:21;;;;;;;0.15;0.15;;;15.80;65.40;;;;;;4191741;28;20290;-44
2021/04/19 09:43:05;;;;;;;0.80;0.80;;;15.80;65.40;;;;;;4191884;28;20052;-43
2021/04/19 09:45:48;;;;;;;0.40;0.40;;;15.80;65.40;;;;;;4192576;28;20494;-46
2021/04/19 09:48:48;;;;;;;2.83;1.08;;;15.80;65.50;;;;;;4192488;28;20411;-45
2021/04/19 09:51:14;;;;;;;0.85;0.85;;;15.80;65.40;;;;;;4231266;27;20050;-43
2021/04/19 09:53:35;;;;;;;0.98;0.88;;;15.80;65.40;;;;;;4235665;27;20043;-46
2021/04/19 09:55:58;;;;;;;0.57;0.57;;;15.80;65.40;;;;;;4230778;27;20050;-45
2021/04/19 09:58:20;;;;;;;0.75;0.75;;;15.80;65.40;;;;;;4206730;28;20479;-43
2021/04/19 10:00:42;;;;;;;0.00;0.00;;;15.80;65.40;;;;;;4209913;28;20052;-43
2021/04/19 10:03:03;;;;;;;0.20;0.20;;;15.80;65.40;;;;;;4193240;28;20044;-48
2021/04/19 10:05:26;;;;;;;1.75;1.65;;;15.80;65.50;;;;;;4211096;27;20134;-44
2021/04/19 10:07:48;;;;;;;0.45;0.45;;;15.80;65.60;;;;;;4229263;27;20058;-43
2021/04/19 10:10:10;;;;;;;0.00;0.00;;;15.70;65.60;;;;;;4224947;27;20109;-45
2021/04/19 10:12:36;;;;;;;0.55;0.55;;;15.70;65.60;;;;;;4207406;28;20126;-47
2021/04/19 10:14:57;;;;;;;0.40;0.40;;;15.70;65.70;;;;;;4197479;28;20048;-45
2021/04/19 10:17:21;;;;;;;0.40;0.40;;;15.70;65.70;;;;;;4204492;28;20516;-45
2021/04/19 10:19:43;;;;;;;0.75;0.75;;;15.70;65.80;;;;;;4207553;28;20494;-45
2021/04/19 10:22:07;;;;;;;0.57;0.57;;;15.70;65.90;;;;;;4205019;28;20048;-44
2021/04/19 10:24:28;;;;;;;0.20;0.20;;;15.60;66.00;;;;;;4224570;28;20036;-48
2021/04/19 10:26:49;;;;;;;0.35;0.35;;;15.60;66.10;;;;;;4223506;28;20494;-48
2021/04/19 10:29:14;;;;;;;1.65;1.35;;;15.60;66.00;;;;;;4220487;28;20383;-47
2021/04/19 10:31:34;;;;;;;4.15;2.92;;;15.60;66.00;;;;;;4234290;27;20054;-43
2021/04/19 10:33:56;;;;;;;0.80;0.80;;;15.60;66.10;;;;;;4221000;27;20052;-44
2021/04/19 10:36:18;;;;;;;;;;;15.60;66.10;;;;;;4208638;27;20071;-44
2021/04/19 10:38:39;;;;;;;0.08;0.08;;;15.60;66.20;;;;;;4212387;27;19959;-44
2021/04/19 10:41:00;;;;;;;;;;;15.70;66.20;;;;;;4241781;27;20633;-44
2021/04/19 10:43:23;;;;;;;0.98;0.98;;;15.60;66.00;;;;;;4241069;27;19919;-44
2021/04/19 10:45:45;;;;;;;1.33;0.65;;;15.70;65.90;;;;;;4237459;27;20047;-43
2021/04/19 10:48:17;;;;;;;37.28;1.85;;;15.60;65.90;;;;;;4215808;28;20125;-51
2021/04/19 10:50:38;;;;;;;1.75;1.75;;;15.70;65.90;;;;;;4224351;28;20105;-47
2021/04/19 10:52:58;;;;;;;3.00;2.50;;;15.70;65.90;;;;;;4225281;27;20227;-47
2021/04/19 10:55:20;;;;;;;0.93;0.93;;;15.80;65.90;;;;;;4225062;27;20062;-45
2021/04/19 10:57:41;;;;;;;3.95;1.63;;;15.80;65.90;;;;;;4225036;28;20044;-44
2021/04/19 11:00:06;;;;;;;0.35;0.35;;;15.80;65.90;;;;;;4224817;28;20525;-44
2021/04/19 11:02:30;;;;;;;7.13;1.70;;;15.80;65.70;;;;;;4225065;28;20081;-46
2021/04/19 11:04:52;;;;;;;0.43;0.43;;;15.90;65.70;;;;;;4222310;27;20139;-45
2021/04/19 11:07:23;;;;;;;;;;;15.90;65.50;;;;;;4230989;27;20047;-44
2021/04/19 11:09:45;;;;;;;0.43;0.43;;;16.00;65.50;;;;;;4221489;27;20015;-48
2021/04/19 11:12:07;;;;;;;3.15;1.88;;;16.00;65.30;;;;;;4206720;28;20051;-44
2021/04/19 11:14:37;;;;;;;1.05;1.05;;;16.00;65.20;;;;;;4224766;28;20450;-44
2021/04/19 11:17:00;;;;;;;3.13;1.80;;;16.10;65.10;;;;;;4212425;28;20046;-46
2021/04/19 11:19:44;;;;;;;1.38;1.27;;;16.10;65.00;;;;;;4207134;28;20414;-44
2021/04/19 11:22:20;;;;;;;1.95;0.75;;;16.20;65.00;;;;;;4207320;28;20048;-44
2021/04/19 11:25:10;;;;;;;9.95;1.20;;;16.20;64.80;;;;;;4207242;28;20562;-45
2021/04/19 11:27:31;;;;;;;2.40;2.30;;;16.20;64.70;;;;;;4207075;28;20047;-45
2021/04/19 11:29:53;;;;;;;1.90;1.08;;;16.20;64.70;;;;;;4207436;28;20517;-46
2021/04/19 11:32:28;;;;;;;1.38;1.38;;;16.30;64.60;;;;;;4207567;28;20052;-45
2021/04/19 11:34:50;;;;;;;1.73;1.73;;;16.30;65.30;;;;;;4207076;28;20056;-44
2021/04/19 11:37:30;;;;;;;0.45;0.45;;;16.30;64.30;;;;;;4207547;28;20490;-44
2021/04/19 11:39:53;;;;;;;0.17;0.17;;;16.40;64.30;;;;;;4207037;28;20132;-44
2021/04/19 11:42:28;;;;;;;1.25;0.88;;;16.40;64.20;;;;;;4207463;28;20058;-46
2021/04/19 11:44:51;;;;;;;4.90;1.02;;;16.40;64.00;;;;;;4212653;28;20055;-46
2021/04/19 11:47:14;;;;;;;0.10;0.10;;;16.50;63.90;;;;;;4214109;28;20044;-44
2021/04/19 11:49:36;;;;;;;0.30;0.30;;;16.50;63.90;;;;;;4229852;28;20051;-45
2021/04/19 11:51:58;;;;;;;0.73;0.73;;;16.50;63.90;;;;;;4229138;28;20468;-46
2021/04/19 11:54:18;;;;;;;1.65;1.63;;;16.50;63.70;;;;;;4214331;28;20130;-45
2021/04/19 11:56:40;;;;;;;2.40;2.13;;;16.60;63.70;;;;;;4229677;28;20051;-45
2021/04/19 11:59:02;;;;;;;0.63;0.63;;;16.60;63.70;;;;;;4228851;28;20055;-46
2021/04/19 12:01:22;;;;;;;1.88;1.05;;;16.60;63.60;;;;;;4213092;28;20102;-45
2021/04/19 12:03:45;;;;;;;0.10;0.10;;;16.70;63.70;;;;;;4212905;28;20048;-47
2021/04/19 12:06:06;;;;;;;0.70;0.70;;;16.70;63.70;;;;;;4213084;28;20048;-46
2021/04/19 12:08:28;;;;;;;0.50;0.50;;;16.70;63.70;;;;;;4220095;27;20067;-44
2021/04/19 12:10:49;;;;;;;0.65;0.65;;;16.80;63.70;;;;;;4230055;27;20058;-44
2021/04/19 12:13:14;;;;;;;;;;;16.80;63.60;;;;;;4230452;27;20050;-44
2021/04/19 12:15:39;;;;;;;1.85;1.75;;;16.80;63.30;;;;;;4230226;27;19981;-48
2021/04/19 12:18:00;;;;;;;0.80;0.80;;;16.80;63.20;;;;;;4213511;27;20048;-47
2021/04/19 12:20:21;;;;;;;0.65;0.65;;;16.90;63.10;;;;;;4218532;27;20050;-45
2021/04/19 12:22:42;;;;;;;0.40;0.40;;;16.90;63.00;;;;;;4246079;27;20047;-47
2021/04/19 12:25:06;;;;;;;1.88;1.05;;;16.90;62.90;;;;;;4246413;27;20469;-44
2021/04/19 12:27:27;;;;;;;0.47;0.47;;;17.00;62.80;;;;;;4246574;27;20071;-44
2021/04/19 12:29:48;;;;;;;0.68;0.68;;;17.00;62.60;;;;;;4246505;27;20051;-44
2021/04/19 12:32:09;;;;;;;0.32;0.32;;;17.10;62.50;;;;;;4246481;27;20055;-44
2021/04/19 12:34:30;;;;;;;0.20;0.20;;;17.10;62.40;;;;;;4246449;27;20844;-44
2021/04/19 12:36:52;;;;;;;0.20;0.20;;;17.10;63.20;;;;;;4246378;27;20055;-44
2021/04/19 12:39:13;;;;;;;0.50;0.50;;;17.20;62.30;;;;;;4246464;27;20047;-45